sensor_id;sensor_type;location;lat;lon;timestamp;P1;durP1;ratioP1;P2;durP2;ratioP2
41755;SDS011;27435;48.480;9.258;2024-03-02T00:02:45;23.90;;;12.83;;
41755;SDS011;27435;48.480;9.258;2024-03-02T00:05:16;23.70;;;13.03;;
41755;SDS011;27435;48.480;9.258;2024-03-02T00:07:47;25.90;;;14.00;;
41755;SDS011;27435;48.480;9.258;2024-03-02T00:10:25;23.70;;;12.35;;
41755;SDS011;27435;48.480;9.258;2024-03-02T00:12:55;22.23;;;12.90;;
41755;SDS011;27435;48.480;9.258;2024-03-02T00:18:06;23.57;;;13.10;;
41755;SDS011;27435;48.480;9.258;2024-03-02T00:20:33;23.77;;;12.53;;
41755;SDS011;27435;48.480;9.258;2024-03-02T00:23:05;21.57;;;12.30;;
41755;SDS011;27435;48.480;9.258;2024-03-02T00:25:51;26.07;;;13.17;;
41755;SDS011;27435;48.480;9.258;2024-03-02T00:28:27;22.97;;;13.57;;
41755;SDS011;27435;48.480;9.258;2024-03-02T00:31:07;26.37;;;13.23;;
41755;SDS011;27435;48.480;9.258;2024-03-02T00:35:59;25.13;;;13.93;;
41755;SDS011;27435;48.480;9.258;2024-03-02T00:38:26;24.23;;;13.13;;
41755;SDS011;27435;48.480;9.258;2024-03-02T00:40:53;25.17;;;14.07;;
41755;SDS011;27435;48.480;9.258;2024-03-02T00:44:20;23.97;;;13.27;;
41755;SDS011;27435;48.480;9.258;2024-03-02T00:46:17;26.37;;;13.43;;
41755;SDS011;27435;48.480;9.258;2024-03-02T00:48:48;24.23;;;13.00;;
41755;SDS011;27435;48.480;9.258;2024-03-02T00:51:25;27.23;;;13.43;;
41755;SDS011;27435;48.480;9.258;2024-03-02T00:53:57;24.27;;;13.47;;
41755;SDS011;27435;48.480;9.258;2024-03-02T00:56:24;24.90;;;13.00;;
41755;SDS011;27435;48.480;9.258;2024-03-02T00:58:50;22.00;;;12.90;;
41755;SDS011;27435;48.480;9.258;2024-03-02T01:01:16;22.30;;;12.37;;
41755;SDS011;27435;48.480;9.258;2024-03-02T01:03:42;23.60;;;12.63;;
41755;SDS011;27435;48.480;9.258;2024-03-02T01:06:08;24.83;;;13.13;;
41755;SDS011;27435;48.480;9.258;2024-03-02T01:08:34;24.63;;;12.13;;
41755;SDS011;27435;48.480;9.258;2024-03-02T01:11:00;25.87;;;13.43;;
41755;SDS011;27435;48.480;9.258;2024-03-02T01:13:26;25.07;;;13.70;;
41755;SDS011;27435;48.480;9.258;2024-03-02T01:15:52;22.83;;;13.07;;
41755;SDS011;27435;48.480;9.258;2024-03-02T01:18:18;22.67;;;12.57;;
41755;SDS011;27435;48.480;9.258;2024-03-02T01:20:44;22.37;;;12.40;;
41755;SDS011;27435;48.480;9.258;2024-03-02T01:23:10;22.90;;;12.03;;
41755;SDS011;27435;48.480;9.258;2024-03-02T01:25:36;24.80;;;12.67;;
41755;SDS011;27435;48.480;9.258;2024-03-02T01:28:02;24.83;;;13.53;;
41755;SDS011;27435;48.480;9.258;2024-03-02T01:30:28;24.87;;;12.60;;
41755;SDS011;27435;48.480;9.258;2024-03-02T01:32:53;25.80;;;12.87;;
41755;SDS011;27435;48.480;9.258;2024-03-02T01:35:19;26.07;;;13.73;;
41755;SDS011;27435;48.480;9.258;2024-03-02T01:37:45;24.70;;;13.13;;
41755;SDS011;27435;48.480;9.258;2024-03-02T01:40:10;24.30;;;13.83;;
41755;SDS011;27435;48.480;9.258;2024-03-02T01:42:36;25.90;;;14.00;;
41755;SDS011;27435;48.480;9.258;2024-03-02T01:45:05;25.23;;;13.33;;
41755;SDS011;27435;48.480;9.258;2024-03-02T01:47:32;23.93;;;13.90;;
41755;SDS011;27435;48.480;9.258;2024-03-02T01:49:58;24.97;;;13.30;;
41755;SDS011;27435;48.480;9.258;2024-03-02T01:52:24;23.87;;;13.60;;
41755;SDS011;27435;48.480;9.258;2024-03-02T01:54:49;27.67;;;13.70;;
41755;SDS011;27435;48.480;9.258;2024-03-02T01:57:15;24.40;;;13.30;;
41755;SDS011;27435;48.480;9.258;2024-03-02T01:59:41;28.57;;;14.90;;
41755;SDS011;27435;48.480;9.258;2024-03-02T02:02:07;27.63;;;14.40;;
41755;SDS011;27435;48.480;9.258;2024-03-02T02:04:33;28.17;;;14.13;;
41755;SDS011;27435;48.480;9.258;2024-03-02T02:06:59;27.67;;;14.00;;
41755;SDS011;27435;48.480;9.258;2024-03-02T02:09:25;25.57;;;13.97;;
41755;SDS011;27435;48.480;9.258;2024-03-02T02:11:51;27.60;;;14.03;;
41755;SDS011;27435;48.480;9.258;2024-03-02T02:14:17;28.63;;;14.27;;
41755;SDS011;27435;48.480;9.258;2024-03-02T02:16:42;24.97;;;13.60;;
41755;SDS011;27435;48.480;9.258;2024-03-02T02:19:08;23.23;;;13.17;;
41755;SDS011;27435;48.480;9.258;2024-03-02T02:21:34;22.17;;;12.30;;
41755;SDS011;27435;48.480;9.258;2024-03-02T02:24:00;25.60;;;13.87;;
41755;SDS011;27435;48.480;9.258;2024-03-02T02:26:28;33.07;;;14.80;;
41755;SDS011;27435;48.480;9.258;2024-03-02T02:28:54;22.63;;;12.87;;
41755;SDS011;27435;48.480;9.258;2024-03-02T02:31:20;21.67;;;12.10;;
41755;SDS011;27435;48.480;9.258;2024-03-02T02:33:45;22.80;;;12.63;;
41755;SDS011;27435;48.480;9.258;2024-03-02T02:36:11;23.27;;;13.37;;
41755;SDS011;27435;48.480;9.258;2024-03-02T02:38:46;23.90;;;12.23;;
41755;SDS011;27435;48.480;9.258;2024-03-02T02:41:14;22.97;;;12.27;;
41755;SDS011;27435;48.480;9.258;2024-03-02T02:43:39;26.40;;;14.07;;
41755;SDS011;27435;48.480;9.258;2024-03-02T02:46:05;24.67;;;12.50;;
41755;SDS011;27435;48.480;9.258;2024-03-02T02:48:31;25.47;;;12.93;;
41755;SDS011;27435;48.480;9.258;2024-03-02T02:50:56;25.63;;;12.60;;
41755;SDS011;27435;48.480;9.258;2024-03-02T02:53:22;21.63;;;11.23;;
41755;SDS011;27435;48.480;9.258;2024-03-02T02:55:47;23.67;;;11.83;;
41755;SDS011;27435;48.480;9.258;2024-03-02T02:58:13;23.80;;;11.33;;
41755;SDS011;27435;48.480;9.258;2024-03-02T03:00:39;25.03;;;13.53;;
41755;SDS011;27435;48.480;9.258;2024-03-02T03:03:05;22.97;;;11.77;;
41755;SDS011;27435;48.480;9.258;2024-03-02T03:05:31;23.23;;;11.83;;
41755;SDS011;27435;48.480;9.258;2024-03-02T03:07:57;22.00;;;11.03;;
41755;SDS011;27435;48.480;9.258;2024-03-02T03:10:22;24.40;;;12.00;;
41755;SDS011;27435;48.480;9.258;2024-03-02T03:12:50;19.50;;;10.43;;
41755;SDS011;27435;48.480;9.258;2024-03-02T03:15:16;23.33;;;11.93;;
41755;SDS011;27435;48.480;9.258;2024-03-02T03:17:42;17.30;;;10.17;;
41755;SDS011;27435;48.480;9.258;2024-03-02T03:20:08;22.63;;;10.93;;
41755;SDS011;27435;48.480;9.258;2024-03-02T03:22:37;24.70;;;11.57;;
41755;SDS011;27435;48.480;9.258;2024-03-02T03:25:04;22.80;;;11.57;;
41755;SDS011;27435;48.480;9.258;2024-03-02T03:27:30;21.90;;;11.57;;
41755;SDS011;27435;48.480;9.258;2024-03-02T03:29:56;20.67;;;10.10;;
41755;SDS011;27435;48.480;9.258;2024-03-02T03:32:21;18.57;;;9.67;;
41755;SDS011;27435;48.480;9.258;2024-03-02T03:34:48;22.03;;;10.17;;
41755;SDS011;27435;48.480;9.258;2024-03-02T03:37:14;18.10;;;10.57;;
41755;SDS011;27435;48.480;9.258;2024-03-02T03:39:40;20.67;;;10.50;;
41755;SDS011;27435;48.480;9.258;2024-03-02T03:42:06;17.03;;;9.57;;
41755;SDS011;27435;48.480;9.258;2024-03-02T03:44:31;18.93;;;10.50;;
41755;SDS011;27435;48.480;9.258;2024-03-02T03:46:58;16.57;;;9.60;;
41755;SDS011;27435;48.480;9.258;2024-03-02T03:49:23;17.30;;;9.63;;
41755;SDS011;27435;48.480;9.258;2024-03-02T03:51:49;16.97;;;9.13;;
41755;SDS011;27435;48.480;9.258;2024-03-02T03:54:15;15.93;;;8.30;;
41755;SDS011;27435;48.480;9.258;2024-03-02T03:56:40;18.23;;;9.57;;
41755;SDS011;27435;48.480;9.258;2024-03-02T03:59:06;18.40;;;8.03;;
41755;SDS011;27435;48.480;9.258;2024-03-02T04:01:31;14.83;;;8.30;;
41755;SDS011;27435;48.480;9.258;2024-03-02T04:03:57;14.37;;;8.70;;
41755;SDS011;27435;48.480;9.258;2024-03-02T04:06:23;15.73;;;7.63;;
41755;SDS011;27435;48.480;9.258;2024-03-02T04:08:49;13.97;;;7.50;;
41755;SDS011;27435;48.480;9.258;2024-03-02T04:11:14;13.87;;;7.60;;
41755;SDS011;27435;48.480;9.258;2024-03-02T04:13:40;13.93;;;7.83;;
41755;SDS011;27435;48.480;9.258;2024-03-02T04:16:05;15.60;;;7.60;;
41755;SDS011;27435;48.480;9.258;2024-03-02T04:18:31;15.53;;;8.67;;
41755;SDS011;27435;48.480;9.258;2024-03-02T04:20:57;13.90;;;8.00;;
41755;SDS011;27435;48.480;9.258;2024-03-02T04:23:26;15.70;;;8.57;;
41755;SDS011;27435;48.480;9.258;2024-03-02T04:25:52;12.17;;;6.87;;
41755;SDS011;27435;48.480;9.258;2024-03-02T04:28:18;16.73;;;7.40;;
41755;SDS011;27435;48.480;9.258;2024-03-02T04:30:43;12.83;;;7.53;;
41755;SDS011;27435;48.480;9.258;2024-03-02T04:33:09;14.13;;;8.17;;
41755;SDS011;27435;48.480;9.258;2024-03-02T04:35:37;16.00;;;7.63;;
41755;SDS011;27435;48.480;9.258;2024-03-02T04:38:03;14.10;;;7.67;;
41755;SDS011;27435;48.480;9.258;2024-03-02T04:40:29;19.03;;;8.50;;
41755;SDS011;27435;48.480;9.258;2024-03-02T04:42:55;17.57;;;9.27;;
41755;SDS011;27435;48.480;9.258;2024-03-02T04:45:20;15.33;;;7.87;;
41755;SDS011;27435;48.480;9.258;2024-03-02T04:47:46;16.30;;;9.17;;
41755;SDS011;27435;48.480;9.258;2024-03-02T04:50:11;14.80;;;8.70;;
41755;SDS011;27435;48.480;9.258;2024-03-02T04:52:37;14.93;;;8.33;;
41755;SDS011;27435;48.480;9.258;2024-03-02T04:55:03;15.40;;;8.37;;
41755;SDS011;27435;48.480;9.258;2024-03-02T04:57:41;15.53;;;8.60;;
41755;SDS011;27435;48.480;9.258;2024-03-02T05:00:07;14.73;;;8.67;;
41755;SDS011;27435;48.480;9.258;2024-03-02T05:02:34;15.57;;;8.60;;
41755;SDS011;27435;48.480;9.258;2024-03-02T05:05:00;14.73;;;8.73;;
41755;SDS011;27435;48.480;9.258;2024-03-02T05:07:25;20.27;;;9.70;;
41755;SDS011;27435;48.480;9.258;2024-03-02T05:09:51;14.70;;;8.17;;
41755;SDS011;27435;48.480;9.258;2024-03-02T05:12:17;15.97;;;8.97;;
41755;SDS011;27435;48.480;9.258;2024-03-02T05:15:01;13.87;;;7.67;;
41755;SDS011;27435;48.480;9.258;2024-03-02T05:17:27;15.53;;;8.40;;
41755;SDS011;27435;48.480;9.258;2024-03-02T05:19:52;14.20;;;7.40;;
41755;SDS011;27435;48.480;9.258;2024-03-02T05:22:18;12.83;;;7.07;;
41755;SDS011;27435;48.480;9.258;2024-03-02T05:24:43;12.90;;;7.37;;
41755;SDS011;27435;48.480;9.258;2024-03-02T05:27:09;12.90;;;7.50;;
41755;SDS011;27435;48.480;9.258;2024-03-02T05:29:35;12.93;;;7.13;;
41755;SDS011;27435;48.480;9.258;2024-03-02T05:32:00;14.37;;;7.07;;
41755;SDS011;27435;48.480;9.258;2024-03-02T05:34:26;13.10;;;7.23;;
41755;SDS011;27435;48.480;9.258;2024-03-02T05:36:51;12.83;;;7.57;;
41755;SDS011;27435;48.480;9.258;2024-03-02T05:39:17;14.77;;;7.80;;
41755;SDS011;27435;48.480;9.258;2024-03-02T05:41:42;14.50;;;8.13;;
41755;SDS011;27435;48.480;9.258;2024-03-02T05:44:08;12.27;;;7.30;;
41755;SDS011;27435;48.480;9.258;2024-03-02T05:46:34;12.87;;;7.73;;
41755;SDS011;27435;48.480;9.258;2024-03-02T05:48:59;13.57;;;7.23;;
41755;SDS011;27435;48.480;9.258;2024-03-02T05:51:26;14.13;;;7.90;;
41755;SDS011;27435;48.480;9.258;2024-03-02T05:53:51;12.57;;;6.63;;
41755;SDS011;27435;48.480;9.258;2024-03-02T05:56:17;12.40;;;7.33;;
41755;SDS011;27435;48.480;9.258;2024-03-02T05:58:42;12.13;;;6.73;;
41755;SDS011;27435;48.480;9.258;2024-03-02T06:01:27;9.63;;;5.57;;
41755;SDS011;27435;48.480;9.258;2024-03-02T06:03:56;10.50;;;6.17;;
41755;SDS011;27435;48.480;9.258;2024-03-02T06:06:22;10.90;;;6.83;;
41755;SDS011;27435;48.480;9.258;2024-03-02T06:08:48;9.40;;;5.67;;
41755;SDS011;27435;48.480;9.258;2024-03-02T06:11:13;11.73;;;6.47;;
41755;SDS011;27435;48.480;9.258;2024-03-02T06:13:39;10.73;;;6.40;;
41755;SDS011;27435;48.480;9.258;2024-03-02T06:16:05;11.63;;;6.67;;
41755;SDS011;27435;48.480;9.258;2024-03-02T06:18:31;10.67;;;6.00;;
41755;SDS011;27435;48.480;9.258;2024-03-02T06:20:56;10.20;;;5.63;;
41755;SDS011;27435;48.480;9.258;2024-03-02T06:23:22;9.47;;;5.77;;
41755;SDS011;27435;48.480;9.258;2024-03-02T06:25:48;9.37;;;5.70;;
41755;SDS011;27435;48.480;9.258;2024-03-02T06:28:13;9.27;;;5.53;;
41755;SDS011;27435;48.480;9.258;2024-03-02T06:30:41;9.23;;;5.40;;
41755;SDS011;27435;48.480;9.258;2024-03-02T06:33:07;9.07;;;5.07;;
41755;SDS011;27435;48.480;9.258;2024-03-02T06:35:33;9.60;;;5.57;;
41755;SDS011;27435;48.480;9.258;2024-03-02T06:38:00;10.70;;;5.60;;
41755;SDS011;27435;48.480;9.258;2024-03-02T06:40:26;10.27;;;5.97;;
41755;SDS011;27435;48.480;9.258;2024-03-02T06:42:51;9.03;;;5.30;;
41755;SDS011;27435;48.480;9.258;2024-03-02T06:45:17;9.80;;;5.23;;
41755;SDS011;27435;48.480;9.258;2024-03-02T06:47:43;9.80;;;5.47;;
41755;SDS011;27435;48.480;9.258;2024-03-02T06:50:09;8.47;;;5.17;;
41755;SDS011;27435;48.480;9.258;2024-03-02T06:52:35;8.37;;;5.07;;
41755;SDS011;27435;48.480;9.258;2024-03-02T06:55:01;8.87;;;5.07;;
41755;SDS011;27435;48.480;9.258;2024-03-02T06:57:27;9.00;;;5.50;;
41755;SDS011;27435;48.480;9.258;2024-03-02T06:59:53;8.53;;;5.30;;
41755;SDS011;27435;48.480;9.258;2024-03-02T07:02:22;11.53;;;5.73;;
41755;SDS011;27435;48.480;9.258;2024-03-02T07:04:48;11.40;;;6.00;;
41755;SDS011;27435;48.480;9.258;2024-03-02T07:07:13;10.57;;;5.60;;
41755;SDS011;27435;48.480;9.258;2024-03-02T07:09:39;9.07;;;5.53;;
41755;SDS011;27435;48.480;9.258;2024-03-02T07:12:05;10.27;;;6.00;;
41755;SDS011;27435;48.480;9.258;2024-03-02T07:14:31;9.77;;;5.97;;
41755;SDS011;27435;48.480;9.258;2024-03-02T07:17:15;9.77;;;5.67;;
41755;SDS011;27435;48.480;9.258;2024-03-02T07:19:40;9.77;;;6.20;;
41755;SDS011;27435;48.480;9.258;2024-03-02T07:22:06;10.23;;;6.33;;
41755;SDS011;27435;48.480;9.258;2024-03-02T07:24:38;13.47;;;5.90;;
41755;SDS011;27435;48.480;9.258;2024-03-02T07:27:11;11.32;;;5.72;;
41755;SDS011;27435;48.480;9.258;2024-03-02T07:29:38;12.37;;;6.07;;
41755;SDS011;27435;48.480;9.258;2024-03-02T07:32:05;11.93;;;6.17;;
41755;SDS011;27435;48.480;9.258;2024-03-02T07:34:31;9.67;;;5.73;;
41755;SDS011;27435;48.480;9.258;2024-03-02T07:36:57;11.33;;;6.07;;
41755;SDS011;27435;48.480;9.258;2024-03-02T07:39:23;10.20;;;5.57;;
41755;SDS011;27435;48.480;9.258;2024-03-02T07:41:49;11.43;;;6.63;;
41755;SDS011;27435;48.480;9.258;2024-03-02T07:44:15;10.30;;;6.30;;
41755;SDS011;27435;48.480;9.258;2024-03-02T07:46:41;9.43;;;5.67;;
41755;SDS011;27435;48.480;9.258;2024-03-02T07:49:08;10.57;;;6.23;;
41755;SDS011;27435;48.480;9.258;2024-03-02T07:51:34;8.83;;;5.50;;
41755;SDS011;27435;48.480;9.258;2024-03-02T07:53:59;22.67;;;7.93;;
41755;SDS011;27435;48.480;9.258;2024-03-02T07:56:25;13.57;;;6.30;;
41755;SDS011;27435;48.480;9.258;2024-03-02T07:58:51;12.93;;;7.07;;
41755;SDS011;27435;48.480;9.258;2024-03-02T08:01:17;24.23;;;7.77;;
41755;SDS011;27435;48.480;9.258;2024-03-02T08:03:43;11.53;;;5.90;;
41755;SDS011;27435;48.480;9.258;2024-03-02T08:06:16;12.53;;;5.83;;
41755;SDS011;27435;48.480;9.258;2024-03-02T08:08:45;10.87;;;6.13;;
41755;SDS011;27435;48.480;9.258;2024-03-02T08:11:11;9.70;;;5.33;;
41755;SDS011;27435;48.480;9.258;2024-03-02T08:13:37;10.03;;;5.80;;
41755;SDS011;27435;48.480;9.258;2024-03-02T08:16:03;9.93;;;6.00;;
41755;SDS011;27435;48.480;9.258;2024-03-02T08:18:32;11.70;;;5.80;;
41755;SDS011;27435;48.480;9.258;2024-03-02T08:20:58;9.03;;;5.00;;
41755;SDS011;27435;48.480;9.258;2024-03-02T08:23:23;11.13;;;5.07;;
41755;SDS011;27435;48.480;9.258;2024-03-02T08:25:49;9.70;;;4.77;;
41755;SDS011;27435;48.480;9.258;2024-03-02T08:28:15;8.27;;;5.10;;
41755;SDS011;27435;48.480;9.258;2024-03-02T08:30:40;9.50;;;5.77;;
41755;SDS011;27435;48.480;9.258;2024-03-02T08:33:06;7.10;;;4.13;;
41755;SDS011;27435;48.480;9.258;2024-03-02T08:35:32;9.07;;;5.40;;
41755;SDS011;27435;48.480;9.258;2024-03-02T08:38:04;8.90;;;5.13;;
41755;SDS011;27435;48.480;9.258;2024-03-02T08:40:31;12.20;;;5.67;;
41755;SDS011;27435;48.480;9.258;2024-03-02T08:42:57;9.07;;;4.20;;
41755;SDS011;27435;48.480;9.258;2024-03-02T08:45:22;9.50;;;5.43;;
41755;SDS011;27435;48.480;9.258;2024-03-02T08:47:48;7.77;;;4.63;;
41755;SDS011;27435;48.480;9.258;2024-03-02T08:50:14;6.57;;;4.20;;
41755;SDS011;27435;48.480;9.258;2024-03-02T08:52:39;13.30;;;5.77;;
41755;SDS011;27435;48.480;9.258;2024-03-02T08:55:05;8.07;;;5.00;;
41755;SDS011;27435;48.480;9.258;2024-03-02T08:57:32;9.50;;;5.27;;
41755;SDS011;27435;48.480;9.258;2024-03-02T08:59:58;9.13;;;4.43;;
41755;SDS011;27435;48.480;9.258;2024-03-02T09:02:24;7.77;;;4.40;;
41755;SDS011;27435;48.480;9.258;2024-03-02T09:04:50;8.73;;;4.63;;
41755;SDS011;27435;48.480;9.258;2024-03-02T09:07:16;12.13;;;5.83;;
41755;SDS011;27435;48.480;9.258;2024-03-02T09:09:42;10.60;;;6.23;;
41755;SDS011;27435;48.480;9.258;2024-03-02T09:12:07;8.93;;;4.97;;
41755;SDS011;27435;48.480;9.258;2024-03-02T09:14:33;10.20;;;6.30;;
41755;SDS011;27435;48.480;9.258;2024-03-02T09:17:01;10.30;;;5.60;;
41755;SDS011;27435;48.480;9.258;2024-03-02T09:19:28;9.97;;;5.10;;
41755;SDS011;27435;48.480;9.258;2024-03-02T09:21:54;9.60;;;5.77;;
41755;SDS011;27435;48.480;9.258;2024-03-02T09:24:21;16.23;;;8.33;;
41755;SDS011;27435;48.480;9.258;2024-03-02T09:26:47;11.33;;;6.53;;
41755;SDS011;27435;48.480;9.258;2024-03-02T09:29:12;15.17;;;6.83;;
41755;SDS011;27435;48.480;9.258;2024-03-02T09:31:42;10.67;;;6.53;;
41755;SDS011;27435;48.480;9.258;2024-03-02T09:34:08;8.03;;;5.13;;
41755;SDS011;27435;48.480;9.258;2024-03-02T09:36:34;8.83;;;5.70;;
41755;SDS011;27435;48.480;9.258;2024-03-02T09:39:02;11.50;;;5.90;;
41755;SDS011;27435;48.480;9.258;2024-03-02T09:41:29;10.90;;;6.00;;
41755;SDS011;27435;48.480;9.258;2024-03-02T09:43:54;12.00;;;6.70;;
41755;SDS011;27435;48.480;9.258;2024-03-02T09:46:20;13.13;;;7.10;;
41755;SDS011;27435;48.480;9.258;2024-03-02T09:48:46;7.57;;;4.80;;
41755;SDS011;27435;48.480;9.258;2024-03-02T09:51:12;7.30;;;4.33;;
41755;SDS011;27435;48.480;9.258;2024-03-02T09:53:39;6.93;;;3.93;;
41755;SDS011;27435;48.480;9.258;2024-03-02T09:56:05;7.70;;;4.83;;
41755;SDS011;27435;48.480;9.258;2024-03-02T09:58:31;6.60;;;4.27;;
41755;SDS011;27435;48.480;9.258;2024-03-02T10:00:57;9.00;;;4.33;;
41755;SDS011;27435;48.480;9.258;2024-03-02T10:03:23;6.30;;;3.80;;
41755;SDS011;27435;48.480;9.258;2024-03-02T10:05:51;9.27;;;4.10;;
41755;SDS011;27435;48.480;9.258;2024-03-02T10:08:17;8.27;;;4.17;;
41755;SDS011;27435;48.480;9.258;2024-03-02T10:10:42;6.07;;;3.77;;
41755;SDS011;27435;48.480;9.258;2024-03-02T10:13:09;5.20;;;2.90;;
41755;SDS011;27435;48.480;9.258;2024-03-02T10:15:36;5.60;;;3.37;;
41755;SDS011;27435;48.480;9.258;2024-03-02T10:18:12;5.23;;;3.13;;
41755;SDS011;27435;48.480;9.258;2024-03-02T10:20:39;4.93;;;2.70;;
41755;SDS011;27435;48.480;9.258;2024-03-02T10:23:11;6.40;;;3.00;;
41755;SDS011;27435;48.480;9.258;2024-03-02T10:25:42;3.90;;;1.90;;
41755;SDS011;27435;48.480;9.258;2024-03-02T10:28:09;3.63;;;2.00;;
41755;SDS011;27435;48.480;9.258;2024-03-02T10:30:35;2.23;;;1.00;;
41755;SDS011;27435;48.480;9.258;2024-03-02T10:33:01;2.77;;;1.30;;
41755;SDS011;27435;48.480;9.258;2024-03-02T10:35:28;2.10;;;0.90;;
41755;SDS011;27435;48.480;9.258;2024-03-02T10:37:54;1.97;;;0.97;;
41755;SDS011;27435;48.480;9.258;2024-03-02T10:40:23;2.47;;;1.27;;
41755;SDS011;27435;48.480;9.258;2024-03-02T10:42:51;3.30;;;1.67;;
41755;SDS011;27435;48.480;9.258;2024-03-02T10:45:17;1.43;;;0.60;;
41755;SDS011;27435;48.480;9.258;2024-03-02T10:47:47;1.70;;;0.80;;
41755;SDS011;27435;48.480;9.258;2024-03-02T10:50:13;1.50;;;0.70;;
41755;SDS011;27435;48.480;9.258;2024-03-02T10:52:39;2.27;;;1.10;;
41755;SDS011;27435;48.480;9.258;2024-03-02T10:55:05;2.70;;;1.40;;
41755;SDS011;27435;48.480;9.258;2024-03-02T11:00:11;3.53;;;1.60;;
41755;SDS011;27435;48.480;9.258;2024-03-02T11:02:41;3.17;;;1.20;;
41755;SDS011;27435;48.480;9.258;2024-03-02T11:07:56;3.90;;;1.27;;
41755;SDS011;27435;48.480;9.258;2024-03-02T11:10:26;3.63;;;1.83;;
41755;SDS011;27435;48.480;9.258;2024-03-02T11:13:00;2.67;;;1.48;;
41755;SDS011;27435;48.480;9.258;2024-03-02T11:15:27;2.13;;;0.95;;
41755;SDS011;27435;48.480;9.258;2024-03-02T11:17:53;1.40;;;0.75;;
41755;SDS011;27435;48.480;9.258;2024-03-02T11:20:20;3.37;;;1.10;;
41755;SDS011;27435;48.480;9.258;2024-03-02T11:22:46;2.15;;;1.10;;
41755;SDS011;27435;48.480;9.258;2024-03-02T11:25:22;2.67;;;1.15;;
41755;SDS011;27435;48.480;9.258;2024-03-02T11:33:02;1.90;;;1.00;;
41755;SDS011;27435;48.480;9.258;2024-03-02T11:35:38;2.13;;;0.90;;
41755;SDS011;27435;48.480;9.258;2024-03-02T11:38:15;2.60;;;1.20;;
41755;SDS011;27435;48.480;9.258;2024-03-02T11:40:42;2.25;;;1.17;;
41755;SDS011;27435;48.480;9.258;2024-03-02T11:43:08;3.95;;;1.98;;
41755;SDS011;27435;48.480;9.258;2024-03-02T11:45:35;4.38;;;1.75;;
41755;SDS011;27435;48.480;9.258;2024-03-02T11:48:05;2.75;;;1.33;;
41755;SDS011;27435;48.480;9.258;2024-03-02T11:53:05;2.67;;;1.27;;
41755;SDS011;27435;48.480;9.258;2024-03-02T11:55:33;2.65;;;1.40;;
41755;SDS011;27435;48.480;9.258;2024-03-02T11:58:04;2.95;;;1.35;;
41755;SDS011;27435;48.480;9.258;2024-03-02T12:00:30;2.78;;;1.30;;
41755;SDS011;27435;48.480;9.258;2024-03-02T12:03:14;3.65;;;1.50;;
41755;SDS011;27435;48.480;9.258;2024-03-02T12:05:40;2.83;;;1.50;;
41755;SDS011;27435;48.480;9.258;2024-03-02T12:08:07;2.65;;;1.38;;
41755;SDS011;27435;48.480;9.258;2024-03-02T12:10:33;3.95;;;1.30;;
41755;SDS011;27435;48.480;9.258;2024-03-02T12:13:01;2.53;;;1.10;;
41755;SDS011;27435;48.480;9.258;2024-03-02T12:15:30;2.45;;;1.27;;
41755;SDS011;27435;48.480;9.258;2024-03-02T12:18:02;1.77;;;0.82;;
41755;SDS011;27435;48.480;9.258;2024-03-02T12:20:28;1.85;;;0.82;;
41755;SDS011;27435;48.480;9.258;2024-03-02T12:22:55;2.38;;;1.08;;
41755;SDS011;27435;48.480;9.258;2024-03-02T12:25:25;1.42;;;0.70;;
41755;SDS011;27435;48.480;9.258;2024-03-02T12:27:55;2.00;;;0.77;;
41755;SDS011;27435;48.480;9.258;2024-03-02T12:30:23;1.67;;;0.80;;
41755;SDS011;27435;48.480;9.258;2024-03-02T12:32:49;2.40;;;0.85;;
41755;SDS011;27435;48.480;9.258;2024-03-02T12:35:15;2.38;;;0.70;;
41755;SDS011;27435;48.480;9.258;2024-03-02T12:37:50;1.77;;;0.77;;
41755;SDS011;27435;48.480;9.258;2024-03-02T12:40:17;1.85;;;0.60;;
41755;SDS011;27435;48.480;9.258;2024-03-02T12:42:44;1.17;;;0.50;;
41755;SDS011;27435;48.480;9.258;2024-03-02T12:45:11;2.47;;;0.80;;
41755;SDS011;27435;48.480;9.258;2024-03-02T12:47:38;3.25;;;1.20;;
41755;SDS011;27435;48.480;9.258;2024-03-02T12:50:05;1.90;;;1.02;;
41755;SDS011;27435;48.480;9.258;2024-03-02T12:52:32;1.77;;;0.88;;
41755;SDS011;27435;48.480;9.258;2024-03-02T12:54:59;2.25;;;1.20;;
41755;SDS011;27435;48.480;9.258;2024-03-02T12:57:30;1.45;;;0.60;;
41755;SDS011;27435;48.480;9.258;2024-03-02T13:00:00;1.88;;;0.90;;
41755;SDS011;27435;48.480;9.258;2024-03-02T13:02:34;1.70;;;0.88;;
41755;SDS011;27435;48.480;9.258;2024-03-02T13:05:00;1.60;;;0.85;;
41755;SDS011;27435;48.480;9.258;2024-03-02T13:07:26;2.00;;;0.80;;
41755;SDS011;27435;48.480;9.258;2024-03-02T13:09:52;1.80;;;0.63;;
41755;SDS011;27435;48.480;9.258;2024-03-02T13:12:21;1.63;;;0.70;;
41755;SDS011;27435;48.480;9.258;2024-03-02T13:14:49;1.50;;;0.70;;
41755;SDS011;27435;48.480;9.258;2024-03-02T13:17:18;1.67;;;0.68;;
41755;SDS011;27435;48.480;9.258;2024-03-02T13:19:51;1.58;;;0.60;;
41755;SDS011;27435;48.480;9.258;2024-03-02T13:24:46;2.55;;;0.70;;
41755;SDS011;27435;48.480;9.258;2024-03-02T13:27:12;0.95;;;0.50;;
41755;SDS011;27435;48.480;9.258;2024-03-02T13:29:38;1.38;;;0.63;;
41755;SDS011;27435;48.480;9.258;2024-03-02T13:32:04;1.60;;;0.75;;
41755;SDS011;27435;48.480;9.258;2024-03-02T13:34:30;1.60;;;0.70;;
41755;SDS011;27435;48.480;9.258;2024-03-02T13:36:56;1.73;;;0.77;;
41755;SDS011;27435;48.480;9.258;2024-03-02T13:39:21;2.53;;;0.85;;
41755;SDS011;27435;48.480;9.258;2024-03-02T13:41:48;2.00;;;0.88;;
41755;SDS011;27435;48.480;9.258;2024-03-02T13:44:21;3.03;;;1.55;;
41755;SDS011;27435;48.480;9.258;2024-03-02T13:46:47;2.65;;;0.90;;
41755;SDS011;27435;48.480;9.258;2024-03-02T13:49:13;1.50;;;0.68;;
41755;SDS011;27435;48.480;9.258;2024-03-02T13:51:39;1.85;;;0.73;;
41755;SDS011;27435;48.480;9.258;2024-03-02T13:54:05;2.00;;;1.00;;
41755;SDS011;27435;48.480;9.258;2024-03-02T13:56:31;2.45;;;0.70;;
41755;SDS011;27435;48.480;9.258;2024-03-02T13:58:57;1.48;;;0.70;;
41755;SDS011;27435;48.480;9.258;2024-03-02T14:01:23;2.60;;;0.90;;
41755;SDS011;27435;48.480;9.258;2024-03-02T14:03:50;2.00;;;0.70;;
41755;SDS011;27435;48.480;9.258;2024-03-02T14:06:16;1.27;;;0.57;;
41755;SDS011;27435;48.480;9.258;2024-03-02T14:08:42;1.00;;;0.45;;
41755;SDS011;27435;48.480;9.258;2024-03-02T14:11:09;2.28;;;0.80;;
41755;SDS011;27435;48.480;9.258;2024-03-02T14:13:39;2.35;;;1.05;;
41755;SDS011;27435;48.480;9.258;2024-03-02T14:16:06;2.80;;;1.30;;
41755;SDS011;27435;48.480;9.258;2024-03-02T14:18:31;2.88;;;1.13;;
41755;SDS011;27435;48.480;9.258;2024-03-02T14:20:57;3.10;;;1.73;;
41755;SDS011;27435;48.480;9.258;2024-03-02T14:23:23;2.47;;;1.20;;
41755;SDS011;27435;48.480;9.258;2024-03-02T14:25:50;2.50;;;1.35;;
41755;SDS011;27435;48.480;9.258;2024-03-02T14:28:16;2.97;;;1.60;;
41755;SDS011;27435;48.480;9.258;2024-03-02T14:30:43;3.20;;;1.50;;
41755;SDS011;27435;48.480;9.258;2024-03-02T14:33:08;3.13;;;1.23;;
41755;SDS011;27435;48.480;9.258;2024-03-02T14:35:35;4.38;;;1.45;;
41755;SDS011;27435;48.480;9.258;2024-03-02T14:38:01;2.75;;;1.15;;
41755;SDS011;27435;48.480;9.258;2024-03-02T14:40:27;2.13;;;1.10;;
41755;SDS011;27435;48.480;9.258;2024-03-02T14:42:54;1.95;;;0.82;;
41755;SDS011;27435;48.480;9.258;2024-03-02T14:45:19;2.40;;;1.10;;
41755;SDS011;27435;48.480;9.258;2024-03-02T14:47:45;2.40;;;1.08;;
41755;SDS011;27435;48.480;9.258;2024-03-02T14:50:11;2.75;;;1.00;;
41755;SDS011;27435;48.480;9.258;2024-03-02T14:52:37;2.17;;;0.80;;
41755;SDS011;27435;48.480;9.258;2024-03-02T14:55:03;2.70;;;1.25;;
41755;SDS011;27435;48.480;9.258;2024-03-02T14:57:29;1.70;;;0.90;;
41755;SDS011;27435;48.480;9.258;2024-03-02T14:59:54;1.15;;;0.65;;